Time;durP1;ratioP1;P1;durP2;ratioP2;P2;SDS_P1;SDS_P2;PMS_P1;PMS_P2;Temp;Humidity;BMP_temperature;BMP_pressure;BME280_temperature;BME280_humidity;BME280_pressure;Samples;Min_cycle;Max_cycle;Signal;HPM_P1;HPM_P2
2022/01/23 00:00:57;;;;;;;85.28;37.25;;;;;;;;;;5063033;28;20024;-48
2022/01/23 00:03:23;;;;;;;28.05;13.38;;;;;;;;;;5063354;28;20348;-48
2022/01/23 00:05:50;;;;;;;61.80;29.05;;;;;;;;;;5061730;28;20032;-49
2022/01/23 00:08:20;;;;;;;21.27;10.00;;;;;;;;;;5062447;28;20017;-49
2022/01/23 00:10:53;;;;;;;29.08;12.45;;;;;;;;;;5065673;28;20024;-49
2022/01/23 00:18:38;;;;;;;34.13;16.30;;;;;;;;;;5066789;28;20028;-49
2022/01/23 00:21:04;;;;;;;36.85;17.92;;;;;;;;;;5065094;28;20094;-51
2022/01/23 00:30:17;;;;;;;55.97;23.30;;;;;;;;;;5065998;28;20028;-52
2022/01/23 00:31:46;;;;;;;51.72;23.75;;;;;;;;;;5065338;28;20123;-50
2022/01/23 00:34:12;;;;;;;35.13;16.05;;;;;;;;;;5065031;28;20082;-49
2022/01/23 00:36:38;;;;;;;31.27;14.38;;;;;;;;;;5065224;28;20074;-49
2022/01/23 00:39:04;;;;;;;34.58;16.48;;;;;;;;;;5065166;28;20053;-48
2022/01/23 00:41:30;;;;;;;26.30;12.02;;;;;;;;;;5065915;28;20150;-49
2022/01/23 00:43:57;;;;;;;43.53;20.15;;;;;;;;;;5065193;28;20125;-50
2022/01/23 00:46:31;;;;;;;30.05;13.98;;;;;;;;;;5065695;28;20085;-51
2022/01/23 00:51:26;;;;;;;30.95;14.65;;;;;;;;;;5064772;28;20025;-49
2022/01/23 00:53:53;;;;;;;42.53;19.35;;;;;;;;;;5064583;28;20025;-49
2022/01/23 00:56:19;;;;;;;38.17;16.10;;;;;;;;;;5074621;28;20032;-48
2022/01/23 00:58:46;;;;;;;34.25;13.70;;;;;;;;;;5064591;28;20544;-50
2022/01/23 01:01:12;;;;;;;49.17;19.80;;;;;;;;;;5064473;28;20046;-50
2022/01/23 01:03:39;;;;;;;46.97;20.60;;;;;;;;;;5064430;28;20028;-52
2022/01/23 01:06:05;;;;;;;47.10;18.25;;;;;;;;;;5064305;28;20032;-51
2022/01/23 01:08:31;;;;;;;60.53;25.63;;;;;;;;;;5064217;28;20048;-48
2022/01/23 01:35:18;;;;;;;40.20;18.45;;;;;;;;;;5064403;28;20198;-51
2022/01/23 01:37:44;;;;;;;48.92;22.50;;;;;;;;;;5063578;28;20036;-50
2022/01/23 01:40:10;;;;;;;32.50;15.30;;;;;;;;;;5063547;28;20469;-50
2022/01/23 01:42:36;;;;;;;47.00;22.08;;;;;;;;;;5063700;28;20024;-51
2022/01/23 01:45:03;;;;;;;33.22;15.38;;;;;;;;;;5063490;28;20029;-50
2022/01/23 01:47:29;;;;;;;37.22;15.88;;;;;;;;;;5063381;28;20100;-48
2022/01/23 01:49:55;;;;;;;30.20;14.32;;;;;;;;;;5063379;28;20024;-51
2022/01/23 01:52:21;;;;;;;30.05;12.45;;;;;;;;;;5063591;28;20024;-50
2022/01/23 01:54:54;;;;;;;26.42;12.20;;;;;;;;;;5063090;28;20731;-49
2022/01/23 01:57:20;;;;;;;20.98;11.65;;;;;;;;;;5064464;28;20117;-50
2022/01/23 02:00:00;;;;;;;20.90;9.95;;;;;;;;;;5063225;28;20021;-48
2022/01/23 02:10:45;;;;;;;19.05;9.23;;;;;;;;;;5064625;28;20141;-49
2022/01/23 02:13:13;;;;;;;32.92;14.93;;;;;;;;;;5063140;28;20058;-49
2022/01/23 02:51:45;;;;;;;20.52;9.50;;;;;;;;;;5019450;28;20191;-49
2022/01/23 02:56:45;;;;;;;18.90;7.20;;;;;;;;;;5019386;28;20040;-51
2022/01/23 02:59:20;;;;;;;16.67;8.45;;;;;;;;;;5059297;28;20036;-51
2022/01/23 03:04:28;;;;;;;22.92;9.32;;;;;;;;;;5063440;28;20032;-48
2022/01/23 03:07:11;;;;;;;17.92;8.00;;;;;;;;;;5063490;28;20169;-49
2022/01/23 03:10:00;;;;;;;16.15;7.57;;;;;;;;;;5063614;28;20089;-49
2022/01/23 03:15:03;;;;;;;17.60;8.73;;;;;;;;;;5062298;28;20512;-48
2022/01/23 03:28:21;;;;;;;24.55;10.63;;;;;;;;;;5092842;28;20109;-51
2022/01/23 03:33:20;;;;;;;25.05;12.90;;;;;;;;;;5093421;28;20161;-50
2022/01/23 03:35:46;;;;;;;19.73;9.50;;;;;;;;;;5093293;28;20024;-50
2022/01/23 03:38:12;;;;;;;16.30;7.20;;;;;;;;;;5093088;28;20565;-51
2022/01/23 03:40:38;;;;;;;19.88;9.88;;;;;;;;;;5092938;28;20031;-50
2022/01/23 03:43:10;;;;;;;20.63;9.60;;;;;;;;;;5093411;28;20024;-51
2022/01/23 03:50:39;;;;;;;13.95;6.70;;;;;;;;;;5096931;28;20024;-52
2022/01/23 03:53:05;;;;;;;20.65;8.68;;;;;;;;;;5096786;28;20031;-50
2022/01/23 03:55:31;;;;;;;17.33;8.40;;;;;;;;;;5096647;28;20059;-51
2022/01/23 03:58:00;;;;;;;19.42;7.25;;;;;;;;;;5096622;28;20025;-52
2022/01/23 04:00:26;;;;;;;20.90;9.07;;;;;;;;;;5096939;28;20039;-50
2022/01/23 04:02:52;;;;;;;20.60;8.25;;;;;;;;;;5096818;28;20099;-50
2022/01/23 04:05:18;;;;;;;21.00;8.23;;;;;;;;;;5096563;28;20066;-51
2022/01/23 04:07:45;;;;;;;22.83;10.10;;;;;;;;;;5096488;28;20489;-50
2022/01/23 04:10:14;;;;;;;21.00;8.38;;;;;;;;;;5096354;28;20108;-51
2022/01/23 04:12:51;;;;;;;16.77;7.57;;;;;;;;;;5096695;28;20032;-51
2022/01/23 05:04:13;;;;;;;20.65;11.05;;;;;;;;;;5095665;28;20028;-50
2022/01/23 05:06:46;;;;;;;19.23;9.63;;;;;;;;;;5095238;28;20028;-50
2022/01/23 05:09:12;;;;;;;15.32;7.57;;;;;;;;;;5095469;28;20023;-51
2022/01/23 05:11:44;;;;;;;24.17;12.02;;;;;;;;;;5095259;28;20032;-50
2022/01/23 05:14:11;;;;;;;18.23;8.82;;;;;;;;;;5094146;28;20449;-50
2022/01/23 05:16:37;;;;;;;21.05;10.07;;;;;;;;;;5095388;28;20017;-49
2022/01/23 05:19:04;;;;;;;34.63;17.00;;;;;;;;;;5095115;28;20110;-51
2022/01/23 05:24:20;;;;;;;25.20;13.45;;;;;;;;;;5095278;28;20028;-50
2022/01/23 05:26:47;;;;;;;26.67;13.38;;;;;;;;;;5094950;28;20040;-51
2022/01/23 05:29:13;;;;;;;25.65;12.95;;;;;;;;;;5093423;28;20425;-51
2022/01/23 05:31:40;;;;;;;30.38;13.38;;;;;;;;;;5094975;28;20023;-50
2022/01/23 05:34:07;;;;;;;32.00;16.58;;;;;;;;;;5094814;28;20474;-51
2022/01/23 05:36:33;;;;;;;39.10;17.90;;;;;;;;;;5094948;28;20463;-51
2022/01/23 05:38:59;;;;;;;64.95;24.00;;;;;;;;;;5095031;28;20016;-50
2022/01/23 05:41:26;;;;;;;78.93;29.83;;;;;;;;;;5094689;28;20028;-51
2022/01/23 05:43:52;;;;;;;92.10;31.83;;;;;;;;;;5094712;28;20469;-51
2022/01/23 05:46:21;;;;;;;97.82;34.28;;;;;;;;;;5094756;28;20043;-50
2022/01/23 05:48:47;;;;;;;77.75;30.10;;;;;;;;;;5094434;28;20023;-50
2022/01/23 05:51:13;;;;;;;77.78;30.33;;;;;;;;;;5094713;28;20023;-51
2022/01/23 05:53:40;;;;;;;59.55;25.38;;;;;;;;;;5094534;28;20024;-51
2022/01/23 05:56:06;;;;;;;56.80;23.80;;;;;;;;;;5094553;28;20024;-49
2022/01/23 05:58:32;;;;;;;53.17;23.20;;;;;;;;;;5094638;28;20024;-50
2022/01/23 06:00:58;;;;;;;46.97;20.13;;;;;;;;;;5094312;28;20103;-50
2022/01/23 06:03:24;;;;;;;48.22;21.80;;;;;;;;;;5094194;28;20428;-51
2022/01/23 06:05:50;;;;;;;37.55;17.20;;;;;;;;;;5093905;28;20036;-51
2022/01/23 06:08:16;;;;;;;33.92;14.30;;;;;;;;;;5094030;28;20021;-51
2022/01/23 06:10:53;;;;;;;37.53;15.23;;;;;;;;;;5094611;28;20479;-48
2022/01/23 06:13:20;;;;;;;30.92;14.10;;;;;;;;;;5094099;28;20016;-49
2022/01/23 06:15:46;;;;;;;33.88;14.88;;;;;;;;;;5093985;28;20024;-53
2022/01/23 06:18:12;;;;;;;28.35;13.30;;;;;;;;;;5093875;28;20016;-51
2022/01/23 06:20:38;;;;;;;34.97;14.05;;;;;;;;;;5094019;28;20051;-51
2022/01/23 06:23:04;;;;;;;30.15;13.65;;;;;;;;;;5093924;28;20027;-51
2022/01/23 06:25:35;;;;;;;32.15;14.48;;;;;;;;;;5093925;28;20059;-51
2022/01/23 06:28:04;;;;;;;40.33;18.13;;;;;;;;;;5093569;28;20101;-50
2022/01/23 06:30:30;;;;;;;34.55;15.98;;;;;;;;;;5093818;28;20037;-49
2022/01/23 06:32:56;;;;;;;32.10;15.25;;;;;;;;;;5093904;28;20120;-50
2022/01/23 06:35:22;;;;;;;42.97;20.40;;;;;;;;;;5093723;28;20024;-51
2022/01/23 06:37:48;;;;;;;30.45;15.95;;;;;;;;;;5093687;28;20059;-50
2022/01/23 06:40:14;;;;;;;47.25;18.83;;;;;;;;;;5093674;28;20020;-50
2022/01/23 06:42:40;;;;;;;57.65;27.13;;;;;;;;;;5093700;28;20032;-50
2022/01/23 06:45:07;;;;;;;61.67;28.60;;;;;;;;;;5093536;28;20462;-50
2022/01/23 06:47:33;;;;;;;60.67;28.42;;;;;;;;;;5093806;28;20035;-50
2022/01/23 06:49:59;;;;;;;43.83;20.08;;;;;;;;;;5093557;28;20047;-50
2022/01/23 06:52:25;;;;;;;41.17;19.08;;;;;;;;;;5093355;28;20020;-50
2022/01/23 06:54:51;;;;;;;51.22;23.25;;;;;;;;;;5091852;28;20028;-50
2022/01/23 06:57:17;;;;;;;36.67;18.38;;;;;;;;;;5093305;28;20020;-49
2022/01/23 06:59:43;;;;;;;60.70;29.42;;;;;;;;;;5093369;28;20032;-49
2022/01/23 07:02:10;;;;;;;60.53;27.80;;;;;;;;;;5093344;28;20024;-49
2022/01/23 07:04:36;;;;;;;43.75;21.27;;;;;;;;;;5093224;28;20043;-51
2022/01/23 07:07:02;;;;;;;39.67;20.15;;;;;;;;;;5093302;28;20038;-50
2022/01/23 07:09:29;;;;;;;33.92;17.88;;;;;;;;;;5093013;28;20488;-50
2022/01/23 07:11:55;;;;;;;31.83;16.75;;;;;;;;;;5092634;28;20028;-50
2022/01/23 07:14:21;;;;;;;31.40;17.02;;;;;;;;;;5092621;28;20020;-50
2022/01/23 07:16:49;;;;;;;35.38;18.33;;;;;;;;;;5092733;28;20024;-50
2022/01/23 07:19:15;;;;;;;28.33;15.68;;;;;;;;;;5095101;28;20047;-50
2022/01/23 07:21:44;;;;;;;28.50;15.80;;;;;;;;;;5096800;28;20107;-50
2022/01/23 07:24:10;;;;;;;26.63;15.63;;;;;;;;;;5096700;28;20035;-50
2022/01/23 07:26:37;;;;;;;31.83;16.17;;;;;;;;;;5096610;28;20545;-48
2022/01/23 07:29:05;;;;;;;25.65;14.32;;;;;;;;;;5096444;28;20131;-49
2022/01/23 07:34:02;;;;;;;22.02;13.35;;;;;;;;;;5096449;28;20028;-49
2022/01/23 07:36:28;;;;;;;25.17;13.43;;;;;;;;;;5096649;28;20024;-49
2022/01/23 07:38:54;;;;;;;21.10;12.68;;;;;;;;;;5096455;28;20066;-49
2022/01/23 07:41:20;;;;;;;23.15;13.10;;;;;;;;;;5096483;28;20035;-50
2022/01/23 07:43:49;;;;;;;20.08;12.32;;;;;;;;;;5096494;28;20028;-49
2022/01/23 07:46:15;;;;;;;22.98;12.75;;;;;;;;;;5096882;28;20111;-48
2022/01/23 07:48:41;;;;;;;16.90;10.27;;;;;;;;;;5096204;28;20016;-48
2022/01/23 07:51:07;;;;;;;16.95;11.05;;;;;;;;;;5096382;28;20031;-48
2022/01/23 07:53:33;;;;;;;18.58;11.82;;;;;;;;;;5096254;28;20069;-48
2022/01/23 07:55:59;;;;;;;19.38;12.18;;;;;;;;;;5096089;28;20095;-48
2022/01/23 07:58:25;;;;;;;16.38;11.23;;;;;;;;;;5093515;28;20081;-49
2022/01/23 08:00:51;;;;;;;26.90;16.95;;;;;;;;;;5096094;28;20064;-48
2022/01/23 08:03:20;;;;;;;21.27;13.90;;;;;;;;;;5095994;28;20124;-48
2022/01/23 08:05:46;;;;;;;22.80;13.00;;;;;;;;;;5093353;28;20016;-48
2022/01/23 08:08:12;;;;;;;24.55;14.85;;;;;;;;;;5095796;28;20032;-49
2022/01/23 08:10:39;;;;;;;21.20;14.32;;;;;;;;;;5095947;28;20051;-49
2022/01/23 08:13:05;;;;;;;22.02;13.75;;;;;;;;;;5095898;28;20031;-50
2022/01/23 08:15:36;;;;;;;19.67;14.18;;;;;;;;;;5095902;28;20024;-50
2022/01/23 08:18:02;;;;;;;20.47;14.17;;;;;;;;;;5095642;28;20051;-49
2022/01/23 08:20:29;;;;;;;25.75;14.75;;;;;;;;;;5095871;28;20024;-50
2022/01/23 08:22:57;;;;;;;29.13;17.00;;;;;;;;;;5095380;28;20050;-57
2022/01/23 08:25:23;;;;;;;19.13;13.38;;;;;;;;;;5095712;28;20020;-50
2022/01/23 08:27:49;;;;;;;16.55;12.23;;;;;;;;;;5095490;28;20033;-50
2022/01/23 08:30:16;;;;;;;17.98;13.13;;;;;;;;;;5094952;28;20150;-50
2022/01/23 08:32:44;;;;;;;20.45;14.57;;;;;;;;;;5095376;28;20158;-51
2022/01/23 08:35:10;;;;;;;16.77;13.32;;;;;;;;;;5094158;28;20027;-50
2022/01/23 08:37:36;;;;;;;16.08;12.27;;;;;;;;;;5095717;28;20024;-51
2022/01/23 08:40:04;;;;;;;17.25;11.52;;;;;;;;;;5095869;28;20028;-50
2022/01/23 08:42:30;;;;;;;12.43;10.25;;;;;;;;;;5095828;28;20016;-51
2022/01/23 08:44:56;;;;;;;21.98;16.65;;;;;;;;;;5095736;28;20441;-53
2022/01/23 08:47:25;;;;;;;13.55;10.23;;;;;;;;;;5095529;28;20504;-51
2022/01/23 08:49:51;;;;;;;21.80;12.75;;;;;;;;;;5095556;28;20440;-49
2022/01/23 08:52:21;;;;;;;14.32;10.02;;;;;;;;;;5095488;28;20477;-51
2022/01/23 08:54:56;;;;;;;13.13;9.32;;;;;;;;;;5095632;28;20452;-51
2022/01/23 08:57:22;;;;;;;14.63;10.85;;;;;;;;;;5095274;28;20059;-51
2022/01/23 08:59:48;;;;;;;21.77;15.48;;;;;;;;;;5095475;28;20108;-50
2022/01/23 09:02:15;;;;;;;16.00;10.93;;;;;;;;;;5095310;28;20047;-49
2022/01/23 09:04:41;;;;;;;19.92;12.13;;;;;;;;;;5094861;28;20073;-50
2022/01/23 09:07:07;;;;;;;16.77;11.43;;;;;;;;;;5095320;28;20040;-49
2022/01/23 09:09:37;;;;;;;17.10;11.98;;;;;;;;;;5095232;28;20016;-48
2022/01/23 09:12:20;;;;;;;21.40;15.85;;;;;;;;;;5095176;28;20038;-50
2022/01/23 09:14:46;;;;;;;18.75;12.52;;;;;;;;;;5095166;28;20457;-50
2022/01/23 09:17:12;;;;;;;23.15;15.00;;;;;;;;;;5095022;28;20504;-49
2022/01/23 09:19:39;;;;;;;49.25;33.53;;;;;;;;;;5094995;28;20473;-49
2022/01/23 09:22:05;;;;;;;41.53;27.30;;;;;;;;;;5094347;28;20028;-50
2022/01/23 09:24:32;;;;;;;36.28;24.23;;;;;;;;;;5094821;28;20050;-49
2022/01/23 09:27:04;;;;;;;72.57;53.50;;;;;;;;;;5094596;28;20063;-49
2022/01/23 09:29:42;;;;;;;41.28;30.17;;;;;;;;;;5094374;28;20135;-50
2022/01/23 09:32:12;;;;;;;43.88;28.67;;;;;;;;;;5094717;28;20028;-50
2022/01/23 09:34:42;;;;;;;55.67;37.03;;;;;;;;;;5094753;28;20047;-49
2022/01/23 09:37:09;;;;;;;60.22;29.23;;;;;;;;;;5094561;28;20522;-49
2022/01/23 09:39:35;;;;;;;131.95;73.43;;;;;;;;;;5094576;28;20020;-49
2022/01/23 09:42:05;;;;;;;53.13;30.42;;;;;;;;;;5093512;28;20593;-49
2022/01/23 09:44:35;;;;;;;28.88;16.33;;;;;;;;;;5094493;28;20031;-49
2022/01/23 09:47:01;;;;;;;47.22;27.90;;;;;;;;;;5094468;28;20118;-51
2022/01/23 09:49:29;;;;;;;43.10;27.23;;;;;;;;;;5094541;28;20030;-49
2022/01/23 09:51:59;;;;;;;50.83;30.73;;;;;;;;;;5094329;28;20102;-53
2022/01/23 09:54:25;;;;;;;47.20;29.02;;;;;;;;;;5094387;28;20490;-55
2022/01/23 09:56:51;;;;;;;55.67;35.53;;;;;;;;;;5094215;28;20032;-55
2022/01/23 09:59:18;;;;;;;22.27;13.27;;;;;;;;;;5093253;28;20116;-53
2022/01/23 10:01:45;;;;;;;31.38;17.10;;;;;;;;;;5094244;28;20141;-52
2022/01/23 10:04:12;;;;;;;25.30;15.18;;;;;;;;;;5094113;28;20051;-52
2022/01/23 10:06:38;;;;;;;25.77;15.52;;;;;;;;;;5094113;28;20082;-50
2022/01/23 10:09:08;;;;;;;20.73;11.75;;;;;;;;;;5094056;28;20113;-50
2022/01/23 10:11:39;;;;;;;16.83;10.13;;;;;;;;;;5093924;28;20027;-53
2022/01/23 10:14:05;;;;;;;35.97;17.00;;;;;;;;;;5093991;28;20064;-52
2022/01/23 10:16:32;;;;;;;58.65;25.08;;;;;;;;;;5094135;28;20430;-54
2022/01/23 10:18:59;;;;;;;31.02;16.05;;;;;;;;;;5093933;28;20024;-42
2022/01/23 10:21:25;;;;;;;41.88;20.98;;;;;;;;;;5093804;28;20024;-51
2022/01/23 10:23:52;;;;;;;25.73;14.23;;;;;;;;;;5093758;28;20024;-51
2022/01/23 10:26:38;;;;;;;34.83;18.40;;;;;;;;;;5092983;28;20040;-51
2022/01/23 10:29:15;;;;;;;53.65;19.20;;;;;;;;;;5090326;28;20183;-49
2022/01/23 10:32:01;;;;;;;56.20;30.88;;;;;;;;;;5090491;28;20020;-48
2022/01/23 10:34:40;;;;;;;35.92;17.65;;;;;;;;;;5091157;28;20016;-49
2022/01/23 10:37:06;;;;;;;41.33;16.08;;;;;;;;;;5090664;28;20107;-49
2022/01/23 10:39:44;;;;;;;27.30;14.45;;;;;;;;;;5091966;28;20410;-51
2022/01/23 10:48:40;;;;;;;54.22;28.45;;;;;;;;;;5090142;28;20039;-48
2022/01/23 10:51:17;;;;;;;56.58;26.65;;;;;;;;;;5088142;28;20481;-51
2022/01/23 10:54:01;;;;;;;55.42;21.15;;;;;;;;;;5089609;28;20147;-48
2022/01/23 10:56:28;;;;;;;52.65;26.17;;;;;;;;;;5090420;28;20485;-51
2022/01/23 10:59:00;;;;;;;34.67;16.30;;;;;;;;;;5091697;28;20024;-48
2022/01/23 11:01:28;;;;;;;47.30;23.60;;;;;;;;;;5091915;28;20036;-51
2022/01/23 11:04:04;;;;;;;62.05;33.97;;;;;;;;;;5091605;28;20377;-51
2022/01/23 11:06:30;;;;;;;61.35;33.55;;;;;;;;;;5091853;28;20040;-52
2022/01/23 11:09:13;;;;;;;54.30;30.20;;;;;;;;;;5091755;28;20017;-52
2022/01/23 11:11:44;;;;;;;39.90;21.52;;;;;;;;;;5092253;28;20033;-53
2022/01/23 11:19:46;;;;;;;64.82;33.22;;;;;;;;;;5093436;28;20109;-51
2022/01/23 11:22:17;;;;;;;38.90;19.08;;;;;;;;;;5093143;28;20105;-51
2022/01/23 11:24:47;;;;;;;67.78;33.63;;;;;;;;;;5092955;28;20024;-51
2022/01/23 11:27:14;;;;;;;49.00;20.50;;;;;;;;;;5092687;28;20385;-49
2022/01/23 11:29:55;;;;;;;47.08;21.17;;;;;;;;;;5092959;28;20101;-52
2022/01/23 11:32:22;;;;;;;51.40;25.80;;;;;;;;;;5093025;28;20024;-50
2022/01/23 11:34:49;;;;;;;49.45;26.23;;;;;;;;;;5093002;28;20074;-51
2022/01/23 11:37:16;;;;;;;36.47;18.02;;;;;;;;;;5092998;28;20020;-50
2022/01/23 11:39:50;;;;;;;36.08;17.92;;;;;;;;;;5092808;28;20039;-51
2022/01/23 11:56:47;;;;;;;36.70;18.05;;;;;;;;;;5092915;28;20443;-49
2022/01/23 11:59:24;;;;;;;45.22;23.40;;;;;;;;;;5092518;28;20036;-51
2022/01/23 12:02:35;;;;;;;47.70;25.40;;;;;;;;;;5092732;28;20021;-51
2022/01/23 12:05:21;;;;;;;40.03;23.40;;;;;;;;;;5072128;28;20175;-53
2022/01/23 12:08:07;;;;;;;45.35;24.42;;;;;;;;;;5073857;28;20099;-52
2022/01/23 12:10:50;;;;;;;24.52;15.43;;;;;;;;;;5060518;28;20037;-50
2022/01/23 12:13:23;;;;;;;44.58;21.15;;;;;;;;;;5073670;28;20043;-52
2022/01/23 12:18:40;;;;;;;23.85;12.73;;;;;;;;;;5074303;28;20409;-59
2022/01/23 12:21:06;;;;;;;53.72;30.33;;;;;;;;;;5073642;28;20119;-50
2022/01/23 12:23:52;;;;;;;30.50;16.58;;;;;;;;;;5073724;28;20492;-52
2022/01/23 12:26:20;;;;;;;50.55;28.83;;;;;;;;;;5073542;28;20159;-53
2022/01/23 12:28:46;;;;;;;27.17;14.90;;;;;;;;;;5073587;28;20057;-54
2022/01/23 12:31:14;;;;;;;38.78;22.08;;;;;;;;;;5073710;28;20478;-50
2022/01/23 12:33:40;;;;;;;39.30;17.10;;;;;;;;;;5073766;28;20032;-53
2022/01/23 12:36:08;;;;;;;28.38;17.13;;;;;;;;;;5073574;28;20039;-52
2022/01/23 12:38:37;;;;;;;29.75;17.25;;;;;;;;;;5073396;28;20028;-55
2022/01/23 12:41:21;;;;;;;32.30;17.50;;;;;;;;;;5079316;28;20028;-54
2022/01/23 12:43:48;;;;;;;23.30;11.13;;;;;;;;;;5095884;28;20050;-50
2022/01/23 12:46:22;;;;;;;28.70;15.65;;;;;;;;;;5095656;28;20028;-49
2022/01/23 12:48:49;;;;;;;28.08;14.88;;;;;;;;;;5095659;28;20017;-54
2022/01/23 12:51:18;;;;;;;20.52;11.25;;;;;;;;;;5095585;28;20562;-53
2022/01/23 12:53:47;;;;;;;21.33;13.57;;;;;;;;;;5095508;28;20024;-53
2022/01/23 12:56:13;;;;;;;16.55;10.57;;;;;;;;;;5095660;28;20028;-51
2022/01/23 12:58:40;;;;;;;34.10;12.05;;;;;;;;;;5095735;28;20096;-52
2022/01/23 13:01:08;;;;;;;21.02;9.00;;;;;;;;;;5095512;28;20378;-54
2022/01/23 13:03:37;;;;;;;23.23;9.70;;;;;;;;;;5095426;28;20032;-51
2022/01/23 13:06:07;;;;;;;48.15;15.00;;;;;;;;;;5095422;28;20503;-55
2022/01/23 13:08:37;;;;;;;30.88;14.02;;;;;;;;;;5095285;28;20465;-52
2022/01/23 13:13:47;;;;;;;23.08;12.32;;;;;;;;;;5095509;28;20116;-54
2022/01/23 13:16:23;;;;;;;23.77;13.65;;;;;;;;;;5095051;28;20053;-50
2022/01/23 13:32:41;;;;;;;63.65;28.00;;;;;;;;;;5094955;28;20024;-56
2022/01/23 13:35:11;;;;;;;24.15;13.00;;;;;;;;;;5094824;28;20024;-56
2022/01/23 13:37:39;;;;;;;77.03;26.20;;;;;;;;;;5094952;28;20381;-52
2022/01/23 13:40:14;;;;;;;73.00;28.67;;;;;;;;;;5089886;28;20035;-49
2022/01/23 14:04:35;;;;;;;29.30;16.13;;;;;;;;;;5068671;28;20471;-53
2022/01/23 14:07:01;;;;;;;30.02;12.55;;;;;;;;;;5069133;28;20666;-51
2022/01/23 14:09:27;;;;;;;28.13;12.85;;;;;;;;;;5068711;28;20097;-51
2022/01/23 14:11:55;;;;;;;21.05;12.07;;;;;;;;;;5068779;28;20038;-52
2022/01/23 14:14:26;;;;;;;22.67;12.50;;;;;;;;;;5068686;28;20027;-51
2022/01/23 14:16:53;;;;;;;23.25;11.48;;;;;;;;;;5068821;28;20067;-51
2022/01/23 14:19:26;;;;;;;28.58;13.40;;;;;;;;;;5068788;28;20028;-51
2022/01/23 14:21:59;;;;;;;30.17;14.65;;;;;;;;;;5068716;28;20393;-52
2022/01/23 14:24:30;;;;;;;30.75;14.50;;;;;;;;;;5068515;28;20750;-51
2022/01/23 14:27:08;;;;;;;31.73;16.27;;;;;;;;;;5067922;28;20517;-52
2022/01/23 14:29:48;;;;;;;41.20;22.48;;;;;;;;;;5068550;28;20745;-51
2022/01/23 14:33:06;;;;;;;36.75;18.38;;;;;;;;;;5068451;28;20024;-53
2022/01/23 14:35:05;;;;;;;29.55;14.02;;;;;;;;;;5057335;28;20690;-51
2022/01/23 14:37:32;;;;;;;34.65;15.20;;;;;;;;;;5067942;28;20399;-53
2022/01/23 14:40:16;;;;;;;30.85;15.20;;;;;;;;;;5067661;28;20739;-52
2022/01/23 14:42:57;;;;;;;30.92;13.77;;;;;;;;;;5068133;28;20457;-52
2022/01/23 14:45:23;;;;;;;27.95;13.30;;;;;;;;;;5068088;28;20032;-51
2022/01/23 14:47:49;;;;;;;25.02;12.98;;;;;;;;;;5068293;28;20039;-50
2022/01/23 14:50:18;;;;;;;25.73;12.85;;;;;;;;;;5067867;28;20028;-53
2022/01/23 14:52:45;;;;;;;24.77;13.52;;;;;;;;;;5068259;28;20123;-52
2022/01/23 14:55:11;;;;;;;31.88;16.77;;;;;;;;;;5067161;28;20028;-50
2022/01/23 14:57:40;;;;;;;48.42;22.98;;;;;;;;;;5067823;28;20035;-53
2022/01/23 15:00:07;;;;;;;41.25;19.50;;;;;;;;;;5067991;28;20396;-51
2022/01/23 15:02:33;;;;;;;31.25;17.58;;;;;;;;;;5068261;28;20424;-50
2022/01/23 15:05:03;;;;;;;36.95;20.35;;;;;;;;;;5067533;28;20024;-51
2022/01/23 15:07:40;;;;;;;39.00;22.42;;;;;;;;;;5067938;28;20063;-51
2022/01/23 15:10:06;;;;;;;41.25;23.42;;;;;;;;;;5067613;28;20147;-50
2022/01/23 15:12:33;;;;;;;43.50;24.40;;;;;;;;;;5068171;28;20043;-51
2022/01/23 15:14:59;;;;;;;38.65;22.33;;;;;;;;;;5068092;28;20024;-51
2022/01/23 15:17:26;;;;;;;41.30;23.05;;;;;;;;;;5067708;28;20375;-51
2022/01/23 15:19:53;;;;;;;42.72;22.45;;;;;;;;;;5067905;28;20126;-53
2022/01/23 15:22:19;;;;;;;46.25;22.92;;;;;;;;;;5067553;28;20788;-50
2022/01/23 15:24:46;;;;;;;48.28;23.88;;;;;;;;;;5068063;28;20488;-50
2022/01/23 15:27:13;;;;;;;51.45;24.58;;;;;;;;;;5067368;28;20048;-51
2022/01/23 15:29:39;;;;;;;55.38;24.83;;;;;;;;;;5067848;28;20050;-51
2022/01/23 15:32:05;;;;;;;62.08;28.40;;;;;;;;;;5067747;28;20508;-51
2022/01/23 15:34:35;;;;;;;59.55;26.08;;;;;;;;;;5067732;28;20466;-50
2022/01/23 15:37:01;;;;;;;59.60;26.25;;;;;;;;;;5067652;28;20032;-50
2022/01/23 15:39:30;;;;;;;60.00;28.13;;;;;;;;;;5068366;28;20937;-51
2022/01/23 15:41:56;;;;;;;62.35;27.30;;;;;;;;;;5071744;28;20028;-55
2022/01/23 15:44:23;;;;;;;52.38;25.83;;;;;;;;;;5071782;28;20043;-56
2022/01/23 15:46:52;;;;;;;57.85;26.42;;;;;;;;;;5093202;28;20035;-53
2022/01/23 15:49:18;;;;;;;51.75;25.27;;;;;;;;;;5097106;28;20027;-56
2022/01/23 15:51:47;;;;;;;54.63;25.85;;;;;;;;;;5096979;28;20016;-51
2022/01/23 15:54:14;;;;;;;54.40;25.48;;;;;;;;;;5096945;28;20024;-51
2022/01/23 15:56:41;;;;;;;43.20;21.73;;;;;;;;;;5096640;28;20055;-51
2022/01/23 15:59:07;;;;;;;38.17;20.17;;;;;;;;;;5096813;28;20144;-50
2022/01/23 16:01:35;;;;;;;40.22;21.73;;;;;;;;;;5096768;28;20024;-53
2022/01/23 16:04:01;;;;;;;41.20;20.73;;;;;;;;;;5097111;28;20031;-53
2022/01/23 16:06:27;;;;;;;37.97;19.95;;;;;;;;;;5096463;28;20485;-54
2022/01/23 16:08:53;;;;;;;54.05;25.85;;;;;;;;;;5096450;28;20424;-53
2022/01/23 16:11:20;;;;;;;57.00;26.38;;;;;;;;;;5096531;28;20526;-55
2022/01/23 16:13:46;;;;;;;51.95;26.85;;;;;;;;;;5096449;28;20030;-51
2022/01/23 16:16:14;;;;;;;51.50;25.95;;;;;;;;;;5096465;28;20119;-54
2022/01/23 16:18:41;;;;;;;40.90;20.55;;;;;;;;;;5096496;28;20021;-52
2022/01/23 16:21:08;;;;;;;46.38;22.98;;;;;;;;;;5096286;28;20097;-50
2022/01/23 16:23:34;;;;;;;36.38;18.65;;;;;;;;;;5096572;28;20484;-55
2022/01/23 16:26:01;;;;;;;36.97;19.00;;;;;;;;;;5096264;28;20027;-54
2022/01/23 16:28:27;;;;;;;40.38;17.60;;;;;;;;;;5096047;28;20085;-52
2022/01/23 16:30:54;;;;;;;33.35;16.55;;;;;;;;;;5096081;28;20043;-53
2022/01/23 16:33:23;;;;;;;35.42;17.42;;;;;;;;;;5096234;28;20038;-53
2022/01/23 16:35:49;;;;;;;32.58;15.80;;;;;;;;;;5095948;28;20020;-53
2022/01/23 16:38:18;;;;;;;32.97;16.35;;;;;;;;;;5095903;28;20063;-53
2022/01/23 16:40:45;;;;;;;43.75;19.75;;;;;;;;;;5095780;28;20030;-54
2022/01/23 16:43:11;;;;;;;39.13;18.85;;;;;;;;;;5096198;28;20074;-52
2022/01/23 16:45:37;;;;;;;41.70;20.52;;;;;;;;;;5095973;28;20404;-54
2022/01/23 16:48:04;;;;;;;46.60;22.08;;;;;;;;;;5095804;28;20469;-53
2022/01/23 16:50:32;;;;;;;44.70;22.67;;;;;;;;;;5095301;28;20054;-53
2022/01/23 16:52:58;;;;;;;35.33;16.45;;;;;;;;;;5096022;28;20080;-51
2022/01/23 16:55:25;;;;;;;41.38;19.27;;;;;;;;;;5095842;28;20123;-54
2022/01/23 16:57:51;;;;;;;36.75;17.98;;;;;;;;;;5095846;28;20024;-52
2022/01/23 17:00:17;;;;;;;48.05;22.65;;;;;;;;;;5095773;28;20081;-52
2022/01/23 17:02:43;;;;;;;46.38;23.42;;;;;;;;;;5095738;28;20465;-53
2022/01/23 17:05:10;;;;;;;56.08;28.17;;;;;;;;;;5095847;28;20020;-52
2022/01/23 17:07:36;;;;;;;60.33;31.45;;;;;;;;;;5095361;28;20228;-55
2022/01/23 17:10:05;;;;;;;53.67;26.77;;;;;;;;;;5095893;28;20595;-53
2022/01/23 17:12:32;;;;;;;50.35;24.63;;;;;;;;;;5095597;28;20056;-53
2022/01/23 17:14:58;;;;;;;45.83;23.75;;;;;;;;;;5092630;28;20025;-52
2022/01/23 17:17:27;;;;;;;43.85;22.60;;;;;;;;;;5094739;28;20362;-54
2022/01/23 17:19:53;;;;;;;49.78;26.00;;;;;;;;;;5092016;28;20016;-52
2022/01/23 17:22:20;;;;;;;44.28;23.70;;;;;;;;;;5094532;28;20020;-53
2022/01/23 17:24:46;;;;;;;46.30;23.60;;;;;;;;;;5094526;28;20013;-53
2022/01/23 17:27:12;;;;;;;48.17;24.67;;;;;;;;;;5091771;28;20036;-53
2022/01/23 17:29:38;;;;;;;47.78;24.17;;;;;;;;;;5094399;28;20087;-53
2022/01/23 17:32:08;;;;;;;43.22;22.50;;;;;;;;;;5094512;28;20488;-53
2022/01/23 17:34:35;;;;;;;56.50;25.90;;;;;;;;;;5091922;28;20046;-54
2022/01/23 17:37:01;;;;;;;51.55;23.42;;;;;;;;;;5094376;28;20473;-53
2022/01/23 17:39:27;;;;;;;48.20;23.60;;;;;;;;;;5094568;28;20065;-54
2022/01/23 17:41:53;;;;;;;61.15;27.85;;;;;;;;;;5091538;28;20023;-53
2022/01/23 17:44:20;;;;;;;56.83;23.92;;;;;;;;;;5094229;28;20026;-53
2022/01/23 17:46:53;;;;;;;52.45;24.63;;;;;;;;;;5094056;28;20043;-55
2022/01/23 17:52:04;;;;;;;48.50;22.10;;;;;;;;;;5092942;28;20039;-53
2022/01/23 17:54:31;;;;;;;47.13;22.58;;;;;;;;;;5094151;28;20454;-54
2022/01/23 17:56:57;;;;;;;44.83;20.35;;;;;;;;;;5093888;28;20020;-54
2022/01/23 17:59:23;;;;;;;37.38;17.95;;;;;;;;;;5094067;28;20591;-54
2022/01/23 18:01:49;;;;;;;37.72;18.45;;;;;;;;;;5093652;28;20534;-55
2022/01/23 18:04:15;;;;;;;44.38;21.98;;;;;;;;;;5093863;28;20123;-54
2022/01/23 18:06:43;;;;;;;45.47;21.60;;;;;;;;;;5093736;28;20478;-54
2022/01/23 18:09:12;;;;;;;39.63;20.30;;;;;;;;;;5093660;28;20032;-54
2022/01/23 18:11:39;;;;;;;43.17;21.00;;;;;;;;;;5093621;28;20061;-53
2022/01/23 18:14:09;;;;;;;45.15;22.10;;;;;;;;;;5094197;28;20077;-52
2022/01/23 18:16:36;;;;;;;52.35;25.77;;;;;;;;;;5093816;28;20036;-53
2022/01/23 18:19:02;;;;;;;59.60;27.48;;;;;;;;;;5093951;28;20017;-52